Time;durP1;ratioP1;P1;durP2;ratioP2;P2;SDS_P1;SDS_P2;PMS_P1;PMS_P2;Temp;Humidity;BMP_temperature;BMP_pressure;BME280_temperature;BME280_humidity;BME280_pressure;Samples;Min_cycle;Max_cycle;Signal;HPM_P1;HPM_P2
2022/03/08 00:00:51;;;;;;;1999.90;999.90;;;;;;;-0.59;40.74;102236.28;5027202;27;96827;-74
2022/03/08 00:03:19;;;;;;;1999.90;999.90;;;;;;;-0.57;40.94;102233.81;4998101;27;97678;-71
2022/03/08 00:05:47;;;;;;;1999.90;999.90;;;;;;;-0.59;40.81;102231.06;4993690;28;98161;-71
2022/03/08 00:08:16;;;;;;;1999.90;999.90;;;;;;;-0.62;40.96;102230.81;5000429;28;99009;-70
2022/03/08 00:10:43;;;;;;;1999.90;999.90;;;;;;;-0.63;40.82;102220.22;5016145;27;98291;-71
2022/03/08 00:13:11;;;;;;;1999.90;999.90;;;;;;;-0.65;40.97;102216.56;5020508;27;97865;-70
2022/03/08 00:15:39;;;;;;;1999.90;999.90;;;;;;;-0.68;40.71;102217.19;5006283;27;98281;-71
2022/03/08 00:18:08;;;;;;;1999.90;999.90;;;;;;;-0.74;40.79;102221.91;5014500;27;97813;-70
2022/03/08 00:20:36;;;;;;;1999.90;999.90;;;;;;;-0.77;40.98;102221.59;5023149;27;96912;-71
2022/03/08 00:23:04;;;;;;;1999.90;999.90;;;;;;;-0.79;41.38;102223.16;4999590;28;97142;-70
2022/03/08 00:25:32;;;;;;;1999.90;999.90;;;;;;;-0.82;40.84;102218.59;5020906;27;97649;-70
2022/03/08 00:27:59;;;;;;;1999.90;999.90;;;;;;;-0.85;41.48;102212.19;5004633;27;99393;-71
2022/03/08 00:30:29;;;;;;;1999.90;999.90;;;;;;;-0.88;41.34;102215.41;4998278;28;98505;-70
2022/03/08 00:32:57;;;;;;;1999.90;999.90;;;;;;;-0.91;41.77;102198.56;5001275;27;97847;-71
2022/03/08 00:35:26;;;;;;;1999.90;999.90;;;;;;;-0.90;40.87;102200.38;5020654;27;98850;-70
2022/03/08 00:37:56;;;;;;;1999.90;999.90;;;;;;;-0.91;41.35;102198.56;5005679;27;98183;-70
2022/03/08 00:40:24;;;;;;;1999.90;999.90;;;;;;;-0.96;41.04;102199.84;5022237;27;97681;-71
2022/03/08 00:42:53;;;;;;;1999.90;999.90;;;;;;;-0.99;41.61;102203.09;5017413;27;97642;-71
2022/03/08 00:45:21;;;;;;;1999.90;999.90;;;;;;;-1.00;41.22;102208.19;4997892;27;98884;-71
2022/03/08 00:47:49;;;;;;;1999.90;999.90;;;;;;;-1.03;41.20;102203.59;4990102;28;101094;-72
2022/03/08 00:50:19;;;;;;;1999.90;999.90;;;;;;;-1.03;41.57;102210.53;5012368;27;97673;-71
2022/03/08 00:52:49;;;;;;;1999.90;999.90;;;;;;;-1.04;41.64;102203.47;5010846;27;97119;-71
2022/03/08 00:55:19;;;;;;;1999.90;999.90;;;;;;;-1.05;41.37;102199.91;5008878;28;97777;-70
2022/03/08 00:57:47;;;;;;;1999.90;999.90;;;;;;;-1.05;41.44;102204.25;5018849;27;97593;-71
2022/03/08 01:00:18;;;;;;;1999.90;999.90;;;;;;;-1.05;41.44;102205.16;5020488;27;97599;-71
2022/03/08 01:02:46;;;;;;;1999.90;999.90;;;;;;;-1.02;41.37;102205.44;5018915;27;98146;-71
2022/03/08 01:05:14;;;;;;;1999.90;999.90;;;;;;;-1.03;41.79;102207.91;5014086;27;98819;-70
2022/03/08 01:07:41;;;;;;;1999.90;999.90;;;;;;;-1.06;41.79;102205.00;5032643;27;99176;-70
2022/03/08 01:10:15;;;;;;;1999.90;999.90;;;;;;;-1.08;41.78;102201.34;5006456;27;97189;-70
2022/03/08 01:12:43;;;;;;;1999.90;999.90;;;;;;;-1.11;41.85;102195.84;4991472;28;96854;-70
2022/03/08 01:15:12;;;;;;;1999.90;999.90;;;;;;;-1.14;41.73;102199.09;4979771;27;99274;-69
2022/03/08 01:17:41;;;;;;;1999.90;999.90;;;;;;;-1.17;41.95;102208.34;5013153;27;100026;-70
2022/03/08 01:20:10;;;;;;;1999.90;999.90;;;;;;;-1.20;41.89;102203.78;4986671;28;97150;-70
2022/03/08 01:22:39;;;;;;;1999.90;999.90;;;;;;;-1.26;42.10;102203.22;5010723;27;97325;-70
2022/03/08 01:25:08;;;;;;;1999.90;999.90;;;;;;;-1.26;42.18;102197.06;4993231;28;99013;-70
2022/03/08 01:27:37;;;;;;;1999.90;999.90;;;;;;;-1.30;41.71;102195.88;5008893;27;99089;-70
2022/03/08 01:30:21;;;;;;;1999.90;999.90;;;;;;;-1.32;41.98;102188.72;5013030;27;97368;-70
2022/03/08 01:33:06;;;;;;;1999.90;999.90;;;;;;;-1.37;42.35;102183.06;5019611;27;96777;-70
2022/03/08 01:35:34;;;;;;;1999.90;999.90;;;;;;;-1.41;42.51;102185.22;4992977;28;98724;-69
2022/03/08 01:38:02;;;;;;;1999.90;999.90;;;;;;;-1.44;42.62;102184.97;5013020;27;98756;-70
2022/03/08 01:40:30;;;;;;;1999.90;999.90;;;;;;;-1.45;42.76;102180.53;5007418;27;96922;-70
2022/03/08 01:43:01;;;;;;;1999.90;999.90;;;;;;;-1.47;42.70;102177.75;5014398;27;97454;-69
2022/03/08 01:45:29;;;;;;;1999.90;999.90;;;;;;;-1.52;42.39;102175.53;4992096;28;100809;-69
2022/03/08 01:47:57;;;;;;;1999.90;999.90;;;;;;;-1.61;42.17;102170.38;5016391;27;99467;-69
2022/03/08 01:50:25;;;;;;;1999.90;999.90;;;;;;;-1.63;42.83;102168.41;5008931;27;96935;-70
2022/03/08 01:52:53;;;;;;;1999.90;999.90;;;;;;;-1.67;42.41;102169.84;5005847;27;98326;-70
2022/03/08 01:55:21;;;;;;;1999.90;999.90;;;;;;;-1.71;42.67;102167.72;5015700;27;99319;-70
2022/03/08 01:57:50;;;;;;;1999.90;999.90;;;;;;;-1.72;43.06;102165.84;4990206;28;97786;-69
2022/03/08 02:00:22;;;;;;;1999.90;999.90;;;;;;;-1.77;43.53;102169.75;4972783;28;97560;-70
2022/03/08 02:02:50;;;;;;;1999.90;999.90;;;;;;;-1.75;42.90;102175.09;4988065;28;98407;-70
2022/03/08 02:05:22;;;;;;;1999.90;999.90;;;;;;;-1.80;43.50;102168.53;5008395;27;100835;-70
2022/03/08 02:07:50;;;;;;;1999.90;999.90;;;;;;;-1.82;43.60;102171.03;5007865;27;99655;-70
2022/03/08 02:10:17;;;;;;;1999.90;999.90;;;;;;;-1.84;43.67;102169.97;4991582;27;97047;-69
2022/03/08 02:12:45;;;;;;;1999.90;999.90;;;;;;;-1.84;43.19;102172.56;5017364;27;98858;-70
2022/03/08 02:15:14;;;;;;;1999.90;999.90;;;;;;;-1.82;43.09;102164.88;5008698;27;98750;-70
2022/03/08 02:17:44;;;;;;;1999.90;999.90;;;;;;;-1.82;42.99;102168.41;4992219;28;99739;-69
2022/03/08 02:20:12;;;;;;;1999.90;999.90;;;;;;;-1.82;43.22;102157.97;5008901;27;97355;-70
2022/03/08 02:22:41;;;;;;;1999.90;999.90;;;;;;;-1.80;42.96;102160.72;5013010;27;97538;-70
2022/03/08 02:25:09;;;;;;;1999.90;999.90;;;;;;;-1.77;43.74;102163.59;4993803;27;99287;-70
2022/03/08 02:27:41;;;;;;;1999.90;999.90;;;;;;;-1.77;43.31;102161.00;4993885;28;101354;-70
2022/03/08 02:30:10;;;;;;;1999.90;999.90;;;;;;;-1.78;43.12;102153.94;4993939;28;98666;-71
2022/03/08 02:32:38;;;;;;;1999.90;999.90;;;;;;;-1.80;43.72;102148.59;5003853;27;98202;-71
2022/03/08 02:35:07;;;;;;;1999.90;999.90;;;;;;;-1.82;42.91;102156.25;5019069;27;98049;-69
2022/03/08 02:37:39;;;;;;;1999.90;999.90;;;;;;;-1.86;43.22;102151.56;5004893;27;99661;-69
2022/03/08 02:40:10;;;;;;;1999.90;999.90;;;;;;;-1.87;43.13;102157.53;5010417;27;96863;-70
2022/03/08 02:42:38;;;;;;;1999.90;999.90;;;;;;;-1.87;42.85;102154.03;5015505;27;97209;-70
2022/03/08 02:45:08;;;;;;;1999.90;999.90;;;;;;;-1.85;42.88;102155.06;5015477;27;97999;-70
2022/03/08 02:47:35;;;;;;;1999.90;999.90;;;;;;;-1.89;43.70;102161.69;5012149;27;100800;-70
2022/03/08 02:50:04;;;;;;;1999.90;999.90;;;;;;;-1.91;43.06;102164.94;5020985;27;98175;-70
2022/03/08 02:52:32;;;;;;;1999.90;999.90;;;;;;;-1.91;43.38;102157.13;5008080;28;98728;-70
2022/03/08 02:55:00;;;;;;;1999.90;999.90;;;;;;;-1.92;43.56;102161.41;5016425;27;97696;-69
2022/03/08 02:57:29;;;;;;;1999.90;999.90;;;;;;;-1.94;43.00;102162.97;5015809;27;98261;-70
2022/03/08 02:59:56;;;;;;;1999.90;999.90;;;;;;;-1.94;43.74;102164.66;5020783;27;97210;-70
2022/03/08 03:02:24;;;;;;;1999.90;999.90;;;;;;;-1.94;42.95;102162.97;5015158;27;97009;-71
2022/03/08 03:04:52;;;;;;;1999.90;999.90;;;;;;;-1.93;42.91;102167.44;5020898;27;98135;-70
2022/03/08 03:07:23;;;;;;;1999.90;999.90;;;;;;;-1.93;42.81;102171.72;5015425;27;97326;-70
2022/03/08 03:09:51;;;;;;;1999.90;999.90;;;;;;;-2.10;43.16;102170.16;5031781;27;98635;-70
2022/03/08 03:12:19;;;;;;;1999.90;999.90;;;;;;;-2.14;43.39;102168.00;5004389;28;97272;-70
2022/03/08 03:14:48;;;;;;;1999.90;999.90;;;;;;;-2.15;43.81;102170.47;5016726;27;98872;-70
2022/03/08 03:17:17;;;;;;;1999.90;999.90;;;;;;;-2.16;43.94;102166.94;5017699;28;98827;-70
2022/03/08 03:19:45;;;;;;;1999.90;999.90;;;;;;;-2.17;43.30;102174.63;5018479;27;98225;-70
2022/03/08 03:22:12;;;;;;;1999.90;999.90;;;;;;;-2.16;43.46;102182.59;5017398;27;97336;-70
2022/03/08 03:24:40;;;;;;;1999.90;999.90;;;;;;;-2.21;44.00;102178.63;5017285;27;97733;-70
2022/03/08 03:27:08;;;;;;;1999.90;999.90;;;;;;;-2.22;43.87;102179.41;5003047;27;99423;-70
2022/03/08 03:29:35;;;;;;;1999.90;999.90;;;;;;;-2.21;44.11;102178.63;5018849;27;96817;-70
2022/03/08 03:32:06;;;;;;;1999.90;999.90;;;;;;;-2.23;43.58;102171.41;5006949;27;97440;-70
2022/03/08 03:34:33;;;;;;;1999.90;999.90;;;;;;;-2.26;43.86;102172.06;5021109;27;98703;-69
2022/03/08 03:37:01;;;;;;;1999.90;999.90;;;;;;;-2.30;43.66;102169.94;5017607;27;97624;-70
2022/03/08 03:39:29;;;;;;;1999.90;999.90;;;;;;;-2.34;44.29;102165.19;5014737;27;97563;-70
2022/03/08 03:41:56;;;;;;;1999.90;999.90;;;;;;;-2.35;43.59;102176.41;5013751;27;98988;-69
2022/03/08 03:44:24;;;;;;;1999.90;999.90;;;;;;;-2.38;44.10;102176.09;5017254;27;98262;-69
2022/03/08 03:46:52;;;;;;;1999.90;999.90;;;;;;;-2.40;44.26;102174.13;5003778;27;99724;-69
2022/03/08 03:49:21;;;;;;;1999.90;999.90;;;;;;;-2.44;44.21;102178.13;5015143;27;97568;-70
2022/03/08 03:51:51;;;;;;;1999.90;999.90;;;;;;;-2.46;44.13;102170.94;4996491;28;98141;-70
2022/03/08 03:54:19;;;;;;;1999.90;999.90;;;;;;;-2.47;44.29;102176.94;4997286;28;100931;-69
2022/03/08 03:56:47;;;;;;;1999.90;999.90;;;;;;;-2.48;44.44;102183.81;5012980;27;97626;-69
2022/03/08 03:59:14;;;;;;;1999.90;999.90;;;;;;;-2.34;44.21;102180.84;5015144;27;97284;-69
2022/03/08 04:01:42;;;;;;;1999.90;999.90;;;;;;;-2.35;43.68;102178.09;5016351;27;97049;-70
2022/03/08 04:04:10;;;;;;;1999.90;999.90;;;;;;;-2.38;44.10;102176.09;5015326;27;97629;-68
2022/03/08 04:06:39;;;;;;;1999.90;999.90;;;;;;;-2.39;44.06;102178.56;5015088;27;99271;-70
2022/03/08 04:09:07;;;;;;;1999.90;999.90;;;;;;;-2.41;44.12;102190.53;5016738;28;97351;-71
2022/03/08 04:11:35;;;;;;;1999.90;999.90;;;;;;;-2.52;44.41;102192.13;4998901;27;97820;-70
2022/03/08 04:14:03;;;;;;;1999.90;999.90;;;;;;;-2.65;44.13;102182.97;5016145;27;98282;-71
2022/03/08 04:16:31;;;;;;;1999.90;999.90;;;;;;;-2.70;44.60;102189.44;4989885;28;97799;-70
2022/03/08 04:18:59;;;;;;;1999.90;999.90;;;;;;;-2.72;44.52;102185.75;5021605;27;96779;-70
2022/03/08 04:21:26;;;;;;;1999.90;999.90;;;;;;;-2.77;44.47;102192.22;5003046;28;96983;-70
2022/03/08 04:23:55;;;;;;;1999.90;999.90;;;;;;;-2.85;44.93;102195.00;5009972;27;99405;-70
2022/03/08 04:26:23;;;;;;;1999.90;999.90;;;;;;;-2.88;44.72;102189.53;5011151;27;100659;-69
2022/03/08 04:28:51;;;;;;;1999.90;999.90;;;;;;;-2.82;44.69;102192.69;5017109;27;96800;-70
2022/03/08 04:31:19;;;;;;;1999.90;999.90;;;;;;;-2.84;44.93;102196.84;5001876;27;99212;-69
2022/03/08 04:33:46;;;;;;;1999.90;999.90;;;;;;;-2.84;44.72;102198.53;5019508;27;97068;-69
2022/03/08 04:36:14;;;;;;;1999.90;999.90;;;;;;;-2.85;44.71;102197.63;5019424;27;96785;-70
2022/03/08 04:38:42;;;;;;;1999.90;999.90;;;;;;;-2.86;44.91;102202.69;5015417;27;97365;-69
2022/03/08 04:41:10;;;;;;;1999.90;999.90;;;;;;;-2.88;44.37;102206.81;5017438;27;97034;-70
2022/03/08 04:43:38;;;;;;;1999.90;999.90;;;;;;;-2.89;44.90;102194.56;5019117;27;99728;-70
2022/03/08 04:46:06;;;;;;;1999.90;999.90;;;;;;;-2.89;44.98;102202.38;4999894;28;98898;-69
2022/03/08 04:48:34;;;;;;;1999.90;999.90;;;;;;;-2.90;44.30;102200.53;5001256;27;97891;-69
2022/03/08 04:51:01;;;;;;;1999.90;999.90;;;;;;;-2.91;44.96;102194.41;5003564;27;96865;-70
2022/03/08 04:53:29;;;;;;;1999.90;999.90;;;;;;;-2.40;43.96;102189.78;4999620;27;98002;-70
2022/03/08 04:55:57;;;;;;;1999.90;999.90;;;;;;;-2.70;45.18;102192.97;5013868;27;97210;-70
2022/03/08 04:58:26;;;;;;;1999.90;999.90;;;;;;;-2.79;44.89;102202.50;5000439;27;97177;-70
2022/03/08 05:00:54;;;;;;;1999.90;999.90;;;;;;;-2.86;45.32;102189.66;5017073;27;96968;-70
2022/03/08 05:03:22;;;;;;;1999.90;999.90;;;;;;;-2.88;45.36;102193.81;5013699;27;98947;-70
2022/03/08 05:05:49;;;;;;;1999.90;999.90;;;;;;;-2.85;44.87;102194.09;5012374;27;99059;-70
2022/03/08 05:08:17;;;;;;;1999.90;999.90;;;;;;;-2.85;45.22;102194.09;5010802;27;97219;-70
2022/03/08 05:10:45;;;;;;;1999.90;999.90;;;;;;;-2.87;45.28;102206.03;5009915;27;98060;-71
2022/03/08 05:13:13;;;;;;;1999.90;999.90;;;;;;;-2.88;44.81;102206.81;5019522;27;100592;-70
2022/03/08 05:15:42;;;;;;;1999.90;999.90;;;;;;;-2.91;44.76;102203.94;5021837;27;98888;-71
2022/03/08 05:18:09;;;;;;;1999.90;999.90;;;;;;;-2.95;44.82;102202.69;4998790;27;98680;-71
2022/03/08 05:20:37;;;;;;;1999.90;999.90;;;;;;;-2.98;45.43;102215.41;4996530;27;96971;-71
2022/03/08 05:23:05;;;;;;;1999.90;999.90;;;;;;;-2.99;44.90;102207.47;5028961;27;97777;-71
2022/03/08 05:25:33;;;;;;;1999.90;999.90;;;;;;;-3.01;45.06;102198.59;4987636;27;100620;-70
2022/03/08 05:28:01;;;;;;;1999.90;999.90;;;;;;;-3.01;44.96;102201.19;5012697;27;98353;-70
2022/03/08 05:30:29;;;;;;;1999.90;999.90;;;;;;;-3.00;45.04;102200.41;5012767;27;99275;-71
2022/03/08 05:32:58;;;;;;;1999.90;999.90;;;;;;;-3.03;45.08;102198.44;5012346;27;99099;-70
2022/03/08 05:35:26;;;;;;;1999.90;999.90;;;;;;;-3.02;45.29;102201.97;4999142;28;99381;-70
2022/03/08 05:37:54;;;;;;;1999.90;999.90;;;;;;;-3.02;45.07;102196.75;4987949;28;98606;-71
2022/03/08 05:40:21;;;;;;;1999.90;999.90;;;;;;;-3.04;45.30;102201.78;5008445;27;97259;-70
2022/03/08 05:42:49;;;;;;;1999.90;999.90;;;;;;;-3.05;45.59;102204.25;4997000;28;100624;-72
2022/03/08 05:45:17;;;;;;;1999.90;999.90;;;;;;;-3.06;44.65;102207.63;5011793;27;98669;-72
2022/03/08 05:47:44;;;;;;;1999.90;999.90;;;;;;;-3.07;44.95;102204.09;5003932;27;96951;-71
2022/03/08 05:50:14;;;;;;;1999.90;999.90;;;;;;;-3.08;44.99;102209.16;5006178;27;96950;-72
2022/03/08 05:52:42;;;;;;;1999.90;999.90;;;;;;;-3.08;45.30;102214.38;4975000;28;101477;-74
2022/03/08 05:55:09;;;;;;;1999.90;999.90;;;;;;;-3.07;45.30;102216.19;5007436;27;98590;-72
2022/03/08 05:57:37;;;;;;;1999.90;999.90;;;;;;;-3.09;45.48;102218.66;4987145;28;97583;-73
2022/03/08 06:00:07;;;;;;;1999.90;999.90;;;;;;;-3.10;45.21;102211.63;5012224;27;98188;-72
2022/03/08 06:02:42;;;;;;;1999.90;999.90;;;;;;;-3.13;44.92;102211.31;5002634;27;98910;-72
2022/03/08 06:05:10;;;;;;;1999.90;999.90;;;;;;;-3.17;45.15;102217.00;4974585;27;98502;-70
2022/03/08 06:07:39;;;;;;;1999.90;999.90;;;;;;;-3.22;45.25;102215.59;5005055;27;98865;-70
2022/03/08 06:10:09;;;;;;;1999.90;999.90;;;;;;;-3.27;45.36;102218.53;5013424;27;97099;-70
2022/03/08 06:12:37;;;;;;;1999.90;999.90;;;;;;;-3.28;45.70;102214.09;5007986;27;98826;-70
2022/03/08 06:15:06;;;;;;;1999.90;999.90;;;;;;;-3.28;45.78;102217.63;4983215;27;99220;-71
2022/03/08 06:17:34;;;;;;;1999.90;999.90;;;;;;;-3.29;45.68;102217.44;4975634;28;98186;-71
2022/03/08 06:20:02;;;;;;;1999.90;999.90;;;;;;;-3.30;45.66;102223.44;5009173;27;99556;-71
2022/03/08 06:22:29;;;;;;;1999.90;999.90;;;;;;;-3.29;45.35;102228.78;5009707;27;98789;-71
2022/03/08 06:24:58;;;;;;;1999.90;999.90;;;;;;;-3.25;45.34;102230.00;4991745;27;99312;-73
2022/03/08 06:27:26;;;;;;;1999.90;999.90;;;;;;;-3.23;45.17;102225.88;5004818;27;97110;-71
2022/03/08 06:29:54;;;;;;;1999.90;999.90;;;;;;;-3.26;45.76;102229.13;4998519;27;97000;-71
2022/03/08 06:32:21;;;;;;;1999.90;999.90;;;;;;;-3.27;45.53;102231.53;4992434;28;99963;-71
2022/03/08 06:34:50;;;;;;;1999.90;999.90;;;;;;;-3.27;45.35;102222.06;5010124;27;98378;-73
2022/03/08 06:37:18;;;;;;;1999.90;999.90;;;;;;;-3.25;45.38;102230.00;5000057;27;99330;-73
2022/03/08 06:39:46;;;;;;;1999.90;999.90;;;;;;;-3.19;45.64;102230.63;5007128;27;98033;-71
2022/03/08 06:42:15;;;;;;;1999.90;999.90;;;;;;;-3.16;45.19;102231.84;4998021;27;99363;-70
2022/03/08 06:44:43;;;;;;;1999.90;999.90;;;;;;;-3.16;45.05;102237.03;5011840;27;97508;-71
2022/03/08 06:47:11;;;;;;;1999.90;999.90;;;;;;;-3.16;45.43;102238.72;5004984;27;97139;-71
2022/03/08 06:49:40;;;;;;;1999.90;999.90;;;;;;;-3.15;45.14;102237.97;5014647;27;97494;-72
2022/03/08 06:52:10;;;;;;;1999.90;999.90;;;;;;;-3.11;45.26;102235.81;5003062;27;100461;-72
2022/03/08 06:54:39;;;;;;;1999.90;999.90;;;;;;;-3.05;45.23;102245.91;5003108;27;99223;-72
2022/03/08 06:57:07;;;;;;;1999.90;999.90;;;;;;;-3.00;45.76;102240.38;4991658;28;97763;-73
2022/03/08 06:59:36;;;;;;;1999.90;999.90;;;;;;;-2.94;45.25;102251.41;5005799;27;97159;-71
2022/03/08 07:02:04;;;;;;;1999.90;999.90;;;;;;;-2.90;45.50;102255.22;5002870;27;97914;-72
2022/03/08 07:04:32;;;;;;;1999.90;999.90;;;;;;;-2.88;45.15;102246.81;5001342;27;99771;-72
2022/03/08 07:07:00;;;;;;;1999.90;999.90;;;;;;;-2.85;45.13;102248.78;5009807;27;97695;-71
2022/03/08 07:09:29;;;;;;;1999.90;999.90;;;;;;;-2.82;45.15;102256.91;4985716;28;97232;-71
2022/03/08 07:11:57;;;;;;;1999.90;999.90;;;;;;;-2.80;45.08;102244.94;5015239;27;98471;-72
2022/03/08 07:14:25;;;;;;;1999.90;999.90;;;;;;;-2.75;44.90;102248.94;5014088;27;98150;-72
2022/03/08 07:16:54;;;;;;;1999.90;999.90;;;;;;;-2.70;45.37;102252.88;5012626;27;96895;-72
2022/03/08 07:19:23;;;;;;;1999.90;999.90;;;;;;;-2.66;44.91;102247.22;5015215;27;99117;-71
2022/03/08 07:21:50;;;;;;;1999.90;999.90;;;;;;;-2.64;44.80;102258.69;5012816;27;99202;-72
2022/03/08 07:24:19;;;;;;;1999.90;999.90;;;;;;;-2.61;44.86;102251.16;4993884;27;97952;-71
2022/03/08 07:26:47;;;;;;;1999.90;999.90;;;;;;;-2.58;45.27;102255.78;5012943;28;96946;-71
2022/03/08 07:29:15;;;;;;;1999.90;999.90;;;;;;;-2.53;44.88;102250.22;4998572;28;97025;-71
2022/03/08 07:31:43;;;;;;;1999.90;999.90;;;;;;;-2.48;45.46;102245.44;5012574;27;98916;-71
2022/03/08 07:34:14;;;;;;;1999.90;999.90;;;;;;;-2.44;44.61;102244.97;4993646;28;99943;-71
2022/03/08 07:36:42;;;;;;;1999.90;999.90;;;;;;;-2.40;44.51;102248.00;4983808;28;98568;-72
2022/03/08 07:39:09;;;;;;;1999.90;999.90;;;;;;;-2.37;44.59;102239.56;5005499;27;98565;-71
2022/03/08 07:41:38;;;;;;;1999.90;999.90;;;;;;;-2.31;44.97;102237.56;5014973;27;98121;-71
2022/03/08 07:44:06;;;;;;;1999.90;999.90;;;;;;;-2.27;44.69;102243.19;5016558;27;99426;-70
2022/03/08 07:46:33;;;;;;;1999.90;999.90;;;;;;;-2.23;45.12;102247.94;5012701;27;97574;-71
2022/03/08 07:49:01;;;;;;;1999.90;999.90;;;;;;;-2.20;44.81;102243.00;5005282;27;97297;-71
2022/03/08 07:51:49;;;;;;;1999.90;999.90;;;;;;;-2.15;44.79;102235.66;5004563;27;99834;-71
2022/03/08 07:54:18;;;;;;;1999.90;999.90;;;;;;;-2.11;44.44;102230.88;5006784;27;98366;-71
2022/03/08 07:56:45;;;;;;;1999.90;999.90;;;;;;;-2.10;44.46;102226.59;5012937;27;96972;-71
2022/03/08 07:59:13;;;;;;;1999.90;999.90;;;;;;;-2.08;45.19;102231.19;5013551;27;97117;-71
2022/03/08 08:01:41;;;;;;;1999.90;999.90;;;;;;;-2.03;45.16;102229.91;4998659;27;99536;-72
2022/03/08 08:04:09;;;;;;;1999.90;999.90;;;;;;;-1.97;44.39;102229.59;5002457;27;99498;-71
2022/03/08 08:06:37;;;;;;;1999.90;999.90;;;;;;;-1.92;44.29;102228.31;4996142;28;97373;-70
2022/03/08 08:09:06;;;;;;;1999.90;999.90;;;;;;;-1.87;44.52;102229.69;5015144;27;98769;-71
2022/03/08 08:11:33;;;;;;;1999.90;999.90;;;;;;;-1.82;44.61;102226.69;5007071;27;100613;-70
2022/03/08 08:14:01;;;;;;;1999.90;999.90;;;;;;;-1.77;44.39;102228.81;4986097;27;97300;-71
2022/03/08 08:16:29;;;;;;;1999.90;999.90;;;;;;;-1.72;44.73;102231.09;5004285;27;97688;-71
2022/03/08 08:18:58;;;;;;;1999.90;999.90;;;;;;;-1.66;44.60;102242.09;4978791;27;97515;-72
2022/03/08 08:21:26;;;;;;;1999.90;999.90;;;;;;;-1.61;44.87;102242.50;5020714;27;100585;-71
2022/03/08 08:23:56;;;;;;;1999.90;999.90;;;;;;;-1.56;44.00;102238.66;5014937;27;98741;-70
2022/03/08 08:26:25;;;;;;;1999.90;999.90;;;;;;;-1.52;44.81;102238.19;4981525;28;96857;-71
2022/03/08 08:28:53;;;;;;;1999.90;999.90;;;;;;;-1.46;43.95;102234.44;4990250;28;97269;-71
2022/03/08 08:31:20;;;;;;;1999.90;999.90;;;;;;;-1.42;43.78;102231.31;5007873;27;100304;-72
2022/03/08 08:33:48;;;;;;;1999.90;999.90;;;;;;;-1.36;43.79;102237.09;5015574;27;99389;-72
2022/03/08 08:36:16;;;;;;;1999.90;999.90;;;;;;;-1.29;43.79;102238.59;5008736;27;98612;-71
2022/03/08 08:38:44;;;;;;;1999.90;999.90;;;;;;;-1.23;43.78;102236.53;4989985;28;97959;-71
2022/03/08 08:41:11;;;;;;;1999.90;999.90;;;;;;;-1.16;44.31;102231.09;5016267;27;97855;-70
2022/03/08 08:43:40;;;;;;;1999.90;999.90;;;;;;;-1.12;43.84;102234.09;5016003;27;99748;-70
2022/03/08 08:46:08;;;;;;;1999.90;999.90;;;;;;;-1.06;44.25;102232.06;5011893;27;97602;-70
2022/03/08 08:48:36;;;;;;;1999.90;999.90;;;;;;;-1.00;44.18;102232.63;5007581;27;97451;-71
2022/03/08 08:51:04;;;;;;;1999.90;999.90;;;;;;;-0.49;43.00;102225.88;4993785;27;101777;-71
2022/03/08 08:53:32;;;;;;;1999.90;999.90;;;;;;;-0.93;43.58;102231.47;5001692;28;101094;-71
2022/03/08 08:56:00;;;;;;;1999.90;999.90;;;;;;;-0.89;44.08;102228.34;5019945;27;97446;-71
2022/03/08 08:58:27;;;;;;;1999.90;999.90;;;;;;;-0.84;44.23;102229.69;4988182;28;97745;-71
2022/03/08 09:00:56;;;;;;;1999.90;999.90;;;;;;;-0.78;43.76;102228.50;5000197;27;100698;-71
2022/03/08 09:03:25;;;;;;;1999.90;999.90;;;;;;;-0.71;44.01;102221.22;5005043;27;99261;-71
2022/03/08 09:05:53;;;;;;;1999.90;999.90;;;;;;;-0.66;43.99;102219.94;4984026;28;96923;-70
2022/03/08 09:08:24;;;;;;;1999.90;999.90;;;;;;;-0.61;44.12;102222.16;4996375;28;97890;-70
2022/03/08 09:10:52;;;;;;;1999.90;999.90;;;;;;;-0.55;44.09;102217.50;5011550;27;99286;-71
2022/03/08 09:13:21;;;;;;;1999.90;999.90;;;;;;;-0.48;43.72;102214.63;5009342;28;98758;-70
2022/03/08 09:15:49;;;;;;;1999.90;999.90;;;;;;;-0.42;43.53;102219.50;5003738;27;97615;-70
2022/03/08 09:18:18;;;;;;;1999.90;999.90;;;;;;;-0.38;43.58;102226.81;5003149;27;97864;-72
2022/03/08 09:20:46;;;;;;;1999.90;999.90;;;;;;;-0.33;43.66;102229.06;4987235;28;99061;-70
2022/03/08 09:23:13;;;;;;;1999.90;999.90;;;;;;;-0.27;43.57;102219.16;5004886;27;99650;-70
2022/03/08 09:25:41;;;;;;;1999.90;999.90;;;;;;;-0.21;43.63;102214.41;4995692;28;96875;-71
2022/03/08 09:28:09;;;;;;;1999.90;999.90;;;;;;;-0.16;43.62;102217.44;4993460;27;98498;-70
2022/03/08 09:30:37;;;;;;;1999.90;999.90;;;;;;;-0.11;43.51;102218.75;4983479;28;98997;-69
2022/03/08 09:33:05;;;;;;;1999.90;999.90;;;;;;;-0.07;43.63;102219.16;5004509;27;99103;-69
2022/03/08 09:35:34;;;;;;;1999.90;999.90;;;;;;;0.01;43.33;102220.72;5011690;27;98147;-69
2022/03/08 09:38:02;;;;;;;1999.90;999.90;;;;;;;0.08;43.19;102220.47;5014364;27;99628;-69
2022/03/08 09:40:30;;;;;;;1999.90;999.90;;;;;;;0.15;43.51;102214.06;5005632;27;98038;-69
2022/03/08 09:42:58;;;;;;;1999.90;999.90;;;;;;;0.20;43.56;102224.16;5002601;27;97741;-68
2022/03/08 09:45:26;;;;;;;1999.90;999.90;;;;;;;0.23;43.26;102218.25;5014204;27;96848;-69
2022/03/08 09:47:54;;;;;;;1999.90;999.90;;;;;;;0.29;43.07;102210.03;5010765;27;97727;-70
2022/03/08 09:50:22;;;;;;;1999.90;999.90;;;;;;;0.35;43.10;102207.94;5010171;27;99371;-69
2022/03/08 09:52:54;;;;;;;1999.90;999.90;;;;;;;0.42;42.99;102208.59;4986220;28;99068;-68
2022/03/08 09:55:23;;;;;;;1999.90;999.90;;;;;;;0.51;43.19;102208.44;4966763;27;96915;-69
2022/03/08 09:57:52;;;;;;;1999.90;999.90;;;;;;;0.58;43.20;102213.41;5012411;27;97505;-68
2022/03/08 10:00:23;;;;;;;1999.90;999.90;;;;;;;0.65;42.53;102215.78;5009906;27;98432;-70
2022/03/08 10:02:52;;;;;;;1999.90;999.90;;;;;;;0.70;43.14;102217.06;5010656;27;98636;-69
2022/03/08 10:05:23;;;;;;;1999.90;999.90;;;;;;;0.75;42.71;102223.59;5018488;27;98854;-69
2022/03/08 10:08:10;;;;;;;1999.90;999.90;;;;;;;0.80;42.95;102224.88;4992815;28;97782;-68
2022/03/08 10:10:50;;;;;;;1999.90;999.90;;;;;;;0.87;42.79;102220.28;5003995;27;99321;-69
2022/03/08 10:13:23;;;;;;;1999.90;999.90;;;;;;;0.95;42.72;102223.53;4981122;28;99952;-68
2022/03/08 10:16:07;;;;;;;1999.90;999.90;;;;;;;0.99;42.75;102215.13;5001669;27;97559;-69
2022/03/08 10:18:36;;;;;;;1999.90;999.90;;;;;;;1.05;42.27;102210.41;4981062;28;98331;-68
2022/03/08 10:21:05;;;;;;;1999.90;999.90;;;;;;;1.12;42.27;102205.75;5002799;27;98325;-68
2022/03/08 10:23:43;;;;;;;1999.90;999.90;;;;;;;1.16;42.89;102202.59;4984313;28;99110;-68
2022/03/08 10:26:12;;;;;;;1999.90;999.90;;;;;;;1.25;41.91;102199.84;5008044;27;96880;-68
2022/03/08 10:28:47;;;;;;;1999.90;999.90;;;;;;;1.30;41.85;102195.88;5009416;27;96792;-68
2022/03/08 10:31:16;;;;;;;1999.90;999.90;;;;;;;1.38;42.18;102199.13;4988017;28;97932;-68
2022/03/08 10:33:46;;;;;;;1999.90;999.90;;;;;;;1.44;42.25;102196.97;4998185;27;98897;-69
2022/03/08 10:36:15;;;;;;;1999.90;999.90;;;;;;;1.50;41.68;102197.47;4996083;28;97827;-69
2022/03/08 10:39:13;;;;;;;1999.90;999.90;;;;;;;1.55;41.37;102196.09;5011664;27;97246;-69
2022/03/08 10:41:52;;;;;;;1999.90;999.90;;;;;;;1.59;41.46;102203.44;4996233;28;97855;-69
2022/03/08 10:44:35;;;;;;;1999.90;999.90;;;;;;;1.66;41.39;102201.44;4978669;28;99239;-69
2022/03/08 10:47:07;;;;;;;1999.90;999.90;;;;;;;1.73;41.73;102203.75;4992499;27;99238;-69
2022/03/08 10:49:36;;;;;;;1999.90;999.90;;;;;;;1.76;40.95;102196.09;5016300;27;97081;-71
2022/03/08 10:52:06;;;;;;;1999.90;999.90;;;;;;;1.80;41.59;102192.94;4998831;27;99803;-69
2022/03/08 10:54:35;;;;;;;1999.90;999.90;;;;;;;1.83;40.98;102187.00;5011528;27;100357;-71